KHEZ/HEZ METAR and TAF weather

Enter ICAO airport designator
Station Type Date Time Source
KHEZ METAR 2019/08/22 06:56 UTC NOAA

KHEZ 220656Z AUTO 17007KT 9SM OVC003 23/22 A3000 RMK AO2 SLP158 T02280222


Station Type Date Time Source
KHEZ Decoded METAR 2019/08/22 06:56 UTC NOAA

Station name not available
Aug 22, 2019 - 02:56 AM EDT / 2019.08.22 0656 UTC
Wind: from the S (170 degrees) at 8 MPH (7 KT):0
Visibility: 9 mile(s):0
Sky conditions: overcast
Temperature: 73.0 F (22.8 C)
Dew Point: 72.0 F (22.2 C)
Relative Humidity: 96%
Pressure (altimeter): 30 in. Hg (1015 hPa)
ob: KHEZ 220656Z AUTO 17007KT 9SM OVC003 23/22 A3000 RMK AO2 SLP158 T02280222
cycle: 7

Station Type Date Time Source
KHEZ TAF UTC NOAA

Error!

Example: see airport list